Time;durP1;ratioP1;P1;durP2;ratioP2;P2;SDS_P1;SDS_P2;PMS_P1;PMS_P2;Temp;Humidity;BMP_temperature;BMP_pressure;BME280_temperature;BME280_humidity;BME280_pressure;Samples;Min_cycle;Max_cycle;Signal;HPM_P1;HPM_P2
2022/03/05 00:01:58;;;;;;;;;;;1.10;99.90;;;;;;5134209;28;19975;-68
2022/03/05 00:04:23;;;;;;;;;;;0.70;99.90;;;;;;5134025;28;19973;-71
2022/03/05 00:06:49;;;;;;;;;;;0.60;99.90;;;;;;5134087;28;20072;-68
2022/03/05 00:09:16;;;;;;;;;;;2.70;99.90;;;;;;5134085;28;19946;-71
2022/03/05 00:11:43;;;;;;;;;;;1.10;99.90;;;;;;5134285;28;19999;-69
2022/03/05 00:14:08;;;;;;;;;;;0.60;99.90;;;;;;5135674;27;19924;-71
2022/03/05 00:16:34;;;;;;;;;;;1.80;99.90;;;;;;5119663;27;19923;-69
2022/03/05 00:18:59;;;;;;;;;;;2.50;99.90;;;;;;5119260;27;19930;-71
2022/03/05 00:21:25;;;;;;;;;;;0.50;99.90;;;;;;5137803;27;19923;-71
2022/03/05 00:23:50;;;;;;;;;;;0.60;99.90;;;;;;5119663;27;19924;-68
2022/03/05 00:26:17;;;;;;;;;;;0.60;99.90;;;;;;5138198;27;19923;-68
2022/03/05 00:28:43;;;;;;;;;;;2.00;99.90;;;;;;5137868;27;19931;-69
2022/03/05 00:31:08;;;;;;;;;;;0.50;99.90;;;;;;5137590;27;19923;-68
2022/03/05 00:33:34;;;;;;;;;;;1.90;99.90;;;;;;5137862;27;19924;-71
2022/03/05 00:35:59;;;;;;;;;;;0.50;99.90;;;;;;5137643;27;19930;-68
2022/03/05 00:38:25;;;;;;;;;;;2.30;99.90;;;;;;5137479;27;19924;-69
2022/03/05 00:40:50;;;;;;;;;;;0.50;99.90;;;;;;5137577;27;19923;-69
2022/03/05 00:43:16;;;;;;;;;;;0.50;99.90;;;;;;5119602;27;20014;-69
2022/03/05 00:45:41;;;;;;;;;;;0.50;99.90;;;;;;5119430;27;19980;-71
2022/03/05 00:48:07;;;;;;;;;;;1.00;99.90;;;;;;5118963;27;19923;-71
2022/03/05 00:50:33;;;;;;;;;;;0.50;99.90;;;;;;5137553;27;19931;-71
2022/03/05 00:52:59;;;;;;;;;;;0.50;99.90;;;;;;5118528;27;20357;-70
2022/03/05 00:55:24;;;;;;;;;;;1.10;99.90;;;;;;5137136;27;19927;-71
2022/03/05 00:57:50;;;;;;;;;;;0.40;99.90;;;;;;5119087;27;19923;-68
2022/03/05 01:00:15;;;;;;;;;;;0.60;99.90;;;;;;5119152;27;19927;-69
2022/03/05 01:02:41;;;;;;;;;;;0.40;99.90;;;;;;5137252;27;19970;-69
2022/03/05 01:05:07;;;;;;;;;;;0.40;99.90;;;;;;5127916;27;20018;-70
2022/03/05 01:07:33;;;;;;;;;;;0.40;99.90;;;;;;5115491;28;19989;-71
2022/03/05 01:09:58;;;;;;;;;;;0.40;99.90;;;;;;5116283;28;19928;-69
2022/03/05 01:12:24;;;;;;;;;;;-0.80;99.90;;;;;;5116624;28;19924;-69
2022/03/05 01:14:49;;;;;;;;;;;0.40;99.90;;;;;;5116456;28;19924;-69
2022/03/05 01:17:15;;;;;;;;;;;0.30;99.90;;;;;;5115129;28;20371;-69
2022/03/05 01:19:41;;;;;;;;;;;1.30;99.90;;;;;;5114834;28;19931;-69
2022/03/05 01:22:06;;;;;;;;;;;1.80;99.90;;;;;;5116214;28;19924;-68
2022/03/05 01:24:32;;;;;;;;;;;0.30;99.90;;;;;;5116056;28;19924;-67
2022/03/05 01:26:57;;;;;;;;;;;1.90;99.90;;;;;;5115251;28;19927;-69
2022/03/05 01:29:23;;;;;;;;;;;0.10;99.90;;;;;;5115193;28;19979;-68
2022/03/05 01:31:49;;;;;;;;;;;0.20;99.90;;;;;;5115041;28;19924;-70
2022/03/05 01:34:15;;;;;;;;;;;0.30;99.90;;;;;;5115940;28;20298;-69
2022/03/05 01:36:41;;;;;;;;;;;0.20;99.90;;;;;;5115972;27;19924;-69
2022/03/05 01:39:07;;;;;;;;;;;1.30;99.90;;;;;;5114600;28;19985;-68
2022/03/05 01:41:32;;;;;;;;;;;0.20;99.90;;;;;;5115742;28;19928;-68
2022/03/05 01:43:58;;;;;;;;;;;0.20;99.90;;;;;;5115870;28;20323;-69
2022/03/05 01:46:31;;;;;;;;;;;0.20;99.90;;;;;;5115744;28;20398;-70
2022/03/05 01:48:57;;;;;;;;;;;0.10;99.90;;;;;;5115763;28;20014;-70
2022/03/05 01:51:22;;;;;;;;;;;0.10;99.90;;;;;;5115469;28;20010;-69
2022/03/05 01:53:48;;;;;;;;;;;0.10;99.90;;;;;;5115627;28;19967;-69
2022/03/05 01:56:14;;;;;;;;;;;0.10;99.90;;;;;;5115388;28;20393;-69
2022/03/05 01:58:40;;;;;;;;;;;0.00;99.90;;;;;;5114353;28;19938;-69
2022/03/05 02:01:06;;;;;;;;;;;1.60;99.90;;;;;;5115401;28;19928;-68
2022/03/05 02:03:31;;;;;;;;;;;0.00;99.90;;;;;;5114402;28;19924;-68
2022/03/05 02:05:57;;;;;;;;;;;0.00;99.90;;;;;;5131511;27;20023;-69
2022/03/05 02:08:22;;;;;;;;;;;0.00;99.90;;;;;;5135810;27;19930;-69
2022/03/05 02:10:48;;;;;;;;;;;0.00;99.90;;;;;;5135680;27;19930;-71
2022/03/05 02:13:13;;;;;;;;;;;-1.10;99.90;;;;;;5135931;27;20374;-69
2022/03/05 02:15:39;;;;;;;;;;;2.00;99.90;;;;;;5117647;27;19947;-68
2022/03/05 02:18:04;;;;;;;;;;;-0.10;99.90;;;;;;5135653;27;19946;-68
2022/03/05 02:20:30;;;;;;;;;;;-0.10;99.90;;;;;;5135838;27;19923;-71
2022/03/05 02:22:55;;;;;;;;;;;-0.10;99.90;;;;;;5135600;27;19978;-68
2022/03/05 02:25:21;;;;;;;;;;;-0.10;99.90;;;;;;5116949;27;19923;-69
2022/03/05 02:27:47;;;;;;;;;;;1.80;99.90;;;;;;5117289;27;19924;-71
2022/03/05 02:30:13;;;;;;;;;;;-0.30;99.90;;;;;;5135550;27;19928;-71
2022/03/05 02:32:38;;;;;;;;;;;1.80;99.90;;;;;;5135557;27;20446;-67
2022/03/05 02:35:04;;;;;;;;;;;0.50;99.90;;;;;;5135417;27;19976;-71
2022/03/05 02:37:30;;;;;;;;;;;-0.20;99.90;;;;;;5135226;27;20286;-68
2022/03/05 02:39:55;;;;;;;;;;;-0.30;99.90;;;;;;5117221;27;19927;-69
2022/03/05 02:42:21;;;;;;;;;;;-2.30;99.90;;;;;;5135149;27;19924;-69
2022/03/05 02:44:47;;;;;;;;;;;-0.30;99.90;;;;;;5117208;28;19975;-70
2022/03/05 02:47:12;;;;;;;;;;;1.70;99.90;;;;;;5117174;27;19931;-69
2022/03/05 02:49:38;;;;;;;;;;;0.70;99.90;;;;;;5116420;27;20348;-71
2022/03/05 02:52:04;;;;;;;;;;;-0.30;99.90;;;;;;5134984;27;19977;-68
2022/03/05 02:54:29;;;;;;;;;;;-0.30;99.90;;;;;;5116870;27;19930;-68
2022/03/05 02:56:55;;;;;;;;;;;-0.40;99.90;;;;;;5116577;27;19969;-70
2022/03/05 02:59:20;;;;;;;;;;;0.60;99.90;;;;;;5135118;27;19923;-69
2022/03/05 03:01:46;;;;;;;;;;;-0.40;99.90;;;;;;5116909;27;19928;-71
2022/03/05 03:04:12;;;;;;;;;;;0.70;99.90;;;;;;5116695;27;20370;-68
2022/03/05 03:06:37;;;;;;;;;;;-0.50;99.90;;;;;;5134911;27;19924;-69
2022/03/05 03:09:04;;;;;;;;;;;-0.50;99.90;;;;;;5134807;27;19931;-68
2022/03/05 03:11:29;;;;;;;;;;;-0.50;99.90;;;;;;5134842;27;20010;-70
2022/03/05 03:13:55;;;;;;;;;;;-1.60;99.90;;;;;;5134602;27;19981;-69
2022/03/05 03:16:20;;;;;;;;;;;1.60;99.90;;;;;;5134812;27;19980;-69
2022/03/05 03:18:46;;;;;;;;;;;-0.50;99.90;;;;;;5134821;27;19927;-69
2022/03/05 03:21:11;;;;;;;;;;;1.00;99.90;;;;;;5134840;28;19924;-71
2022/03/05 03:23:37;;;;;;;;;;;-0.60;99.90;;;;;;5135086;28;19927;-68
2022/03/05 03:26:02;;;;;;;;;;;1.70;99.90;;;;;;5134654;28;20378;-68
2022/03/05 03:28:28;;;;;;;;;;;0.90;99.90;;;;;;5134538;28;20012;-69
2022/03/05 03:30:53;;;;;;;;;;;-0.70;99.90;;;;;;5134743;28;19930;-68
2022/03/05 03:33:19;;;;;;;;;;;-0.70;99.90;;;;;;5134775;28;20398;-68
2022/03/05 03:35:45;;;;;;;;;;;-0.70;99.90;;;;;;5134638;28;19984;-69
2022/03/05 03:38:10;;;;;;;;;;;1.00;99.90;;;;;;5099335;28;20423;-70
2022/03/05 03:40:36;;;;;;;;;;;-0.80;99.90;;;;;;5134510;28;19931;-69
2022/03/05 03:43:01;;;;;;;;;;;-0.70;99.90;;;;;;5134511;28;20404;-71
2022/03/05 03:45:27;;;;;;;;;;;-0.20;99.90;;;;;;5134252;28;19923;-69
2022/03/05 03:47:53;;;;;;;;;;;1.30;99.90;;;;;;5116353;27;19978;-68
2022/03/05 03:50:20;;;;;;;;;;;1.40;99.90;;;;;;5137969;27;19924;-71
2022/03/05 03:52:45;;;;;;;;;;;-0.70;99.90;;;;;;5138499;27;19923;-71
2022/03/05 03:55:12;;;;;;;;;;;-0.10;99.90;;;;;;5138534;27;19935;-68
2022/03/05 03:57:38;;;;;;;;;;;-0.80;99.90;;;;;;5138250;27;19930;-70
2022/03/05 04:00:08;;;;;;;;;;;1.20;99.90;;;;;;5138285;27;19954;-68
2022/03/05 04:02:33;;;;;;;;;;;-0.30;99.90;;;;;;5138350;27;19996;-68
2022/03/05 04:04:59;;;;;;;;;;;1.20;99.90;;;;;;5138270;27;20337;-69
2022/03/05 04:10:08;;;;;;;;;;;-0.80;99.90;;;;;;5138199;27;20010;-68
2022/03/05 04:12:35;;;;;;;;;;;-1.20;99.90;;;;;;5138061;27;20038;-69
2022/03/05 04:15:01;;;;;;;;;;;-2.50;99.90;;;;;;5120237;27;20431;-68
2022/03/05 04:17:27;;;;;;;;;;;-0.90;99.90;;;;;;5138010;27;19974;-68
2022/03/05 04:19:52;;;;;;;;;;;-0.90;99.90;;;;;;5138213;27;19924;-68
2022/03/05 04:22:18;;;;;;;;;;;0.30;99.90;;;;;;5137995;27;19930;-69
2022/03/05 04:24:44;;;;;;;;;;;-0.90;99.90;;;;;;5119822;27;19923;-67
2022/03/05 04:27:09;;;;;;;;;;;-0.90;99.90;;;;;;5137703;27;19967;-68
2022/03/05 04:29:35;;;;;;;;;;;-0.90;99.90;;;;;;5102431;27;19962;-68
2022/03/05 04:32:00;;;;;;;;;;;1.50;99.90;;;;;;5137805;27;19945;-68
2022/03/05 04:34:26;;;;;;;;;;;-0.90;99.90;;;;;;5137836;27;20404;-68
2022/03/05 04:36:51;;;;;;;;;;;-1.00;99.90;;;;;;5137721;27;19927;-68
2022/03/05 04:39:17;;;;;;;;;;;0.10;99.90;;;;;;5137497;27;19927;-69
2022/03/05 04:41:43;;;;;;;;;;;1.50;99.90;;;;;;5137599;27;20023;-67
2022/03/05 04:44:09;;;;;;;;;;;-0.30;99.90;;;;;;5137407;27;20022;-68
2022/03/05 04:46:34;;;;;;;;;;;1.50;99.90;;;;;;5119535;27;19930;-68
2022/03/05 04:49:00;;;;;;;;;;;0.40;99.90;;;;;;5119289;27;19924;-67
2022/03/05 04:51:25;;;;;;;;;;;-0.90;99.90;;;;;;5137472;27;20406;-69
2022/03/05 04:53:51;;;;;;;;;;;-0.90;99.90;;;;;;5137374;27;19923;-68
2022/03/05 04:56:16;;;;;;;;;;;-0.90;99.90;;;;;;5137336;27;19924;-70
2022/03/05 04:58:42;;;;;;;;;;;-0.90;99.90;;;;;;5137147;27;19924;-70
2022/03/05 05:01:08;;;;;;;;;;;-0.90;99.90;;;;;;5135779;27;20282;-71
2022/03/05 05:03:33;;;;;;;;;;;0.10;99.90;;;;;;5137307;27;19923;-67
2022/03/05 05:05:59;;;;;;;;;;;-1.00;99.90;;;;;;5131899;27;19924;-68
2022/03/05 05:08:25;;;;;;;;;;;0.50;99.90;;;;;;5137049;27;19923;-69
2022/03/05 05:10:51;;;;;;;;;;;-0.90;99.90;;;;;;5118928;27;20378;-71
2022/03/05 05:13:16;;;;;;;;;;;-0.90;99.90;;;;;;5136900;27;19933;-69
2022/03/05 05:15:42;;;;;;;;;;;1.10;99.90;;;;;;5136680;27;20282;-67
2022/03/05 05:18:07;;;;;;;;;;;1.20;99.90;;;;;;5136920;27;19923;-70
2022/03/05 05:20:33;;;;;;;;;;;-0.70;99.90;;;;;;5118780;27;20343;-70
2022/03/05 05:22:59;;;;;;;;;;;-1.00;99.90;;;;;;5136950;27;20292;-68
2022/03/05 05:25:25;;;;;;;;;;;0.90;99.90;;;;;;5118715;27;19924;-69
2022/03/05 05:27:50;;;;;;;;;;;-1.00;99.90;;;;;;5136661;27;20001;-69
2022/03/05 05:30:16;;;;;;;;;;;-1.00;99.90;;;;;;5118495;27;20018;-69
2022/03/05 05:32:41;;;;;;;;;;;-1.00;99.90;;;;;;5136370;27;20345;-70
2022/03/05 05:35:07;;;;;;;;;;;-1.10;99.90;;;;;;5136673;27;19954;-68
2022/03/05 05:37:33;;;;;;;;;;;-1.10;99.90;;;;;;5136481;27;19928;-71
2022/03/05 05:39:59;;;;;;;;;;;0.30;99.90;;;;;;5136497;27;20014;-67
2022/03/05 05:42:25;;;;;;;;;;;-0.40;99.90;;;;;;5136344;27;19923;-69
2022/03/05 05:44:50;;;;;;;;;;;0.20;99.90;;;;;;5136271;27;19924;-68
2022/03/05 05:47:16;;;;;;;;;;;-1.10;99.90;;;;;;5118129;27;20055;-68
2022/03/05 05:49:41;;;;;;;;;;;-1.20;99.90;;;;;;5136362;27;20002;-67
2022/03/05 05:52:07;;;;;;;;;;;0.50;99.90;;;;;;5136293;27;19927;-68
2022/03/05 05:54:33;;;;;;;;;;;0.70;99.90;;;;;;5118113;27;20031;-67
2022/03/05 05:56:58;;;;;;;;;;;-1.10;99.90;;;;;;5136058;27;19923;-68
2022/03/05 05:59:24;;;;;;;;;;;-1.10;99.90;;;;;;5136005;27;19924;-69
2022/03/05 06:01:49;;;;;;;;;;;-1.10;99.90;;;;;;5117597;27;19923;-70
2022/03/05 06:04:15;;;;;;;;;;;-0.30;99.90;;;;;;5136031;27;20285;-69
2022/03/05 06:06:41;;;;;;;;;;;-1.10;99.90;;;;;;5117552;27;19923;-69
2022/03/05 06:09:07;;;;;;;;;;;0.90;99.90;;;;;;5135747;27;19924;-68
2022/03/05 06:11:32;;;;;;;;;;;-1.10;99.90;;;;;;5117156;27;19927;-68
2022/03/05 06:13:58;;;;;;;;;;;-1.10;99.90;;;;;;5135727;27;20450;-68
2022/03/05 06:16:24;;;;;;;;;;;0.70;99.90;;;;;;5135578;27;19949;-71
2022/03/05 06:18:50;;;;;;;;;;;-0.90;99.90;;;;;;5135507;27;19969;-68
2022/03/05 06:21:15;;;;;;;;;;;-1.10;99.90;;;;;;5135550;27;19965;-67
2022/03/05 06:23:41;;;;;;;;;;;-1.20;99.90;;;;;;5135685;27;19931;-71
2022/03/05 06:26:07;;;;;;;;;;;0.40;99.90;;;;;;5135692;27;19984;-68
2022/03/05 06:28:33;;;;;;;;;;;0.10;99.90;;;;;;5135536;27;20022;-70
2022/03/05 06:30:59;;;;;;;;;;;-0.10;99.90;;;;;;5135380;27;19932;-70
2022/03/05 06:33:25;;;;;;;;;;;-1.10;99.90;;;;;;5117269;27;20002;-70
2022/03/05 06:35:50;;;;;;;;;;;-1.10;99.90;;;;;;5135584;27;20023;-68
2022/03/05 06:38:16;;;;;;;;;;;0.10;99.90;;;;;;5135339;27;19927;-70
2022/03/05 06:40:42;;;;;;;;;;;-1.10;99.90;;;;;;5116666;27;19978;-68
2022/03/05 06:43:07;;;;;;;;;;;-1.00;99.90;;;;;;5135316;27;19923;-69
2022/03/05 06:45:33;;;;;;;;;;;-0.40;99.90;;;;;;5135139;27;19935;-68
2022/03/05 06:47:58;;;;;;;;;;;0.60;99.90;;;;;;5135040;27;19923;-67
2022/03/05 06:50:24;;;;;;;;;;;0.50;99.90;;;;;;5135011;27;19924;-69
2022/03/05 06:52:49;;;;;;;;;;;-1.10;99.90;;;;;;5134912;27;19923;-68
2022/03/05 06:55:16;;;;;;;;;;;-1.10;99.90;;;;;;5135164;27;19930;-67
2022/03/05 06:57:43;;;;;;;;;;;0.30;99.90;;;;;;5116897;27;19924;-69
2022/03/05 07:00:09;;;;;;;;;;;-1.00;99.90;;;;;;5134999;27;19924;-68
2022/03/05 07:02:34;;;;;;;;;;;-0.90;99.90;;;;;;5116705;27;19923;-66
2022/03/05 07:05:00;;;;;;;;;;;-0.90;99.90;;;;;;5134806;27;19923;-71
2022/03/05 07:07:25;;;;;;;;;;;-0.90;99.90;;;;;;5134725;27;19927;-69
2022/03/05 07:09:51;;;;;;;;;;;-0.80;99.90;;;;;;5134856;27;19924;-69
2022/03/05 07:12:17;;;;;;;;;;;-0.80;99.90;;;;;;5116800;27;20364;-70
2022/03/05 07:14:44;;;;;;;;;;;1.00;99.90;;;;;;5134738;27;19930;-70
2022/03/05 07:17:10;;;;;;;;;;;-0.70;99.90;;;;;;5116305;27;20378;-69
2022/03/05 07:19:35;;;;;;;;;;;-0.70;99.90;;;;;;5116136;28;19924;-68
2022/03/05 07:22:01;;;;;;;;;;;-0.60;99.90;;;;;;5134932;27;20371;-69
2022/03/05 07:24:27;;;;;;;;;;;-0.60;99.90;;;;;;5115704;28;20275;-68
2022/03/05 07:26:52;;;;;;;;;;;-0.60;99.90;;;;;;5116461;28;19924;-70
2022/03/05 07:29:18;;;;;;;;;;;-0.50;99.90;;;;;;5134643;28;19930;-68
2022/03/05 07:31:43;;;;;;;;;;;1.00;99.90;;;;;;5134598;28;19924;-70
2022/03/05 07:34:09;;;;;;;;;;;-0.40;99.90;;;;;;5134463;28;19981;-68
2022/03/05 07:36:34;;;;;;;;;;;-0.40;99.90;;;;;;5134814;28;19975;-69
2022/03/05 07:39:00;;;;;;;;;;;-0.30;99.90;;;;;;5116123;28;19930;-71
2022/03/05 07:41:26;;;;;;;;;;;1.30;99.90;;;;;;5134587;28;19934;-68
2022/03/05 07:43:51;;;;;;;;;;;0.60;99.90;;;;;;5134519;28;19923;-68
2022/03/05 07:46:17;;;;;;;;;;;-0.20;99.90;;;;;;5116322;28;19923;-71
2022/03/05 07:48:42;;;;;;;;;;;-0.10;99.90;;;;;;5134448;28;20291;-68
2022/03/05 07:51:08;;;;;;;;;;;1.50;99.90;;;;;;5116102;28;20289;-67
2022/03/05 07:53:34;;;;;;;;;;;0.00;99.90;;;;;;5134561;28;20339;-67
2022/03/05 07:55:59;;;;;;;;;;;0.00;99.90;;;;;;5134493;28;19923;-68
2022/03/05 07:58:25;;;;;;;;;;;0.10;99.90;;;;;;5114796;28;19970;-71
2022/03/05 08:00:58;;;;;;;;;;;0.60;99.90;;;;;;5134154;28;20382;-69
2022/03/05 08:03:23;;;;;;;;;;;0.20;99.90;;;;;;5134004;28;19925;-68
2022/03/05 08:05:49;;;;;;;;;;;0.20;99.90;;;;;;5134035;28;20404;-69
2022/03/05 08:08:15;;;;;;;;;;;0.30;99.90;;;;;;5134138;28;19923;-69
2022/03/05 08:10:40;;;;;;;;;;;0.30;99.90;;;;;;5115950;28;19924;-67
2022/03/05 08:13:06;;;;;;;;;;;0.40;99.90;;;;;;5116006;28;19928;-69
2022/03/05 08:15:32;;;;;;;;;;;1.70;99.90;;;;;;5134231;28;19930;-68
2022/03/05 08:17:58;;;;;;;;;;;0.60;99.90;;;;;;5133959;28;20031;-68
2022/03/05 08:20:25;;;;;;;;;;;0.60;99.90;;;;;;5134200;28;19923;-69
2022/03/05 08:22:51;;;;;;;;;;;0.60;99.90;;;;;;5115955;28;19924;-72
2022/03/05 08:25:17;;;;;;;;;;;1.30;99.90;;;;;;5134276;28;20405;-72
2022/03/05 08:27:42;;;;;;;;;;;1.30;99.90;;;;;;5134075;28;19931;-68
2022/03/05 08:30:08;;;;;;;;;;;2.20;99.90;;;;;;5099029;28;19923;-69
2022/03/05 08:32:34;;;;;;;;;;;0.90;99.90;;;;;;5133911;28;20439;-68
2022/03/05 08:35:00;;;;;;;;;;;2.70;99.90;;;;;;5135145;27;20319;-69
2022/03/05 08:37:27;;;;;;;;;;;1.00;99.90;;;;;;5137626;27;19931;-70
2022/03/05 08:39:53;;;;;;;;;;;0.80;99.90;;;;;;5137681;27;19931;-68
2022/03/05 08:42:18;;;;;;;;;;;1.10;99.90;;;;;;5137559;27;20327;-69
2022/03/05 08:44:44;;;;;;;;;;;1.20;99.90;;;;;;5102062;27;19923;-68
2022/03/05 08:47:09;;;;;;;;;;;2.20;99.90;;;;;;5137430;27;19924;-69
2022/03/05 08:49:35;;;;;;;;;;;2.60;99.90;;;;;;5137424;27;19924;-69
2022/03/05 08:52:01;;;;;;;;;;;2.00;99.90;;;;;;5137323;27;19967;-68
2022/03/05 08:54:26;;;;;;;;;;;1.50;99.90;;;;;;5119451;27;19934;-69
2022/03/05 08:56:52;;;;;;;;;;;1.50;99.90;;;;;;5119081;27;19995;-69
2022/03/05 08:59:18;;;;;;;;;;;1.60;99.90;;;;;;5118795;27;19930;-69
2022/03/05 09:01:44;;;;;;;;;;;2.50;99.90;;;;;;5137150;27;20017;-70
2022/03/05 09:04:09;;;;;;;;;;;2.40;99.90;;;;;;5137048;27;20475;-68
2022/03/05 09:06:35;;;;;;;;;;;3.30;99.90;;;;;;5144535;27;20010;-70
2022/03/05 09:09:00;;;;;;;;;;;1.90;99.90;;;;;;5157824;27;19963;-68
2022/03/05 09:11:26;;;;;;;;;;;1.90;99.90;;;;;;5157787;27;19927;-71
2022/03/05 09:13:52;;;;;;;;;;;2.60;99.90;;;;;;5139530;27;19930;-68
2022/03/05 09:16:18;;;;;;;;;;;2.10;99.90;;;;;;5139323;27;19923;-69
2022/03/05 09:18:43;;;;;;;;;;;2.10;99.90;;;;;;5139170;27;19948;-71
2022/03/05 09:21:09;;;;;;;;;;;2.90;99.90;;;;;;5157885;27;19923;-71
2022/03/05 09:23:35;;;;;;;;;;;2.20;99.90;;;;;;5157777;27;20009;-69
2022/03/05 09:26:00;;;;;;;;;;;3.10;99.90;;;;;;5157351;27;20331;-69
2022/03/05 09:28:26;;;;;;;;;;;2.30;99.90;;;;;;5157448;27;19927;-70
2022/03/05 09:30:51;;;;;;;;;;;2.40;99.90;;;;;;5157513;27;19923;-70
2022/03/05 09:33:17;;;;;;;;;;;2.40;99.90;;;;;;5157245;27;20007;-69
2022/03/05 09:35:43;;;;;;;;;;;2.80;99.90;;;;;;5138372;27;19973;-68
2022/03/05 09:38:09;;;;;;;;;;;2.80;99.90;;;;;;5138785;27;19923;-71
2022/03/05 09:40:35;;;;;;;;;;;4.00;99.90;;;;;;5138819;27;19930;-67
2022/03/05 09:43:01;;;;;;;;;;;2.60;99.90;;;;;;5157288;27;19923;-68
2022/03/05 09:45:27;;;;;;;;;;;3.70;99.90;;;;;;5139010;27;19927;-69
2022/03/05 09:47:53;;;;;;;;;;;2.80;99.90;;;;;;5156359;27;19923;-69
2022/03/05 09:50:18;;;;;;;;;;;2.80;99.90;;;;;;5157107;27;19923;-70
2022/03/05 09:52:44;;;;;;;;;;;4.20;99.90;;;;;;5156822;27;19976;-68
2022/03/05 09:55:09;;;;;;;;;;;4.40;99.90;;;;;;5156205;27;19934;-68
2022/03/05 09:57:35;;;;;;;;;;;3.50;99.90;;;;;;5156794;27;19923;-71
2022/03/05 10:00:02;;;;;;;;;;;3.10;99.90;;;;;;5156321;27;19968;-70
2022/03/05 10:02:30;;;;;;;;;;;4.50;99.90;;;;;;5155636;27;21582;-69
2022/03/05 10:05:18;;;;;;;;;;;3.30;99.90;;;;;;5156410;27;20085;-69
2022/03/05 10:08:07;;;;;;;;;;;3.30;99.90;;;;;;5156583;27;20347;-69
2022/03/05 10:10:39;;;;;;;;;;;3.40;99.90;;;;;;5156468;27;19927;-67
2022/03/05 10:13:22;;;;;;;;;;;3.50;99.90;;;;;;5156305;27;20438;-70
2022/03/05 10:15:49;;;;;;;;;;;3.50;99.90;;;;;;5156173;27;20279;-68
2022/03/05 10:18:15;;;;;;;;;;;2.70;99.90;;;;;;5156014;27;19974;-69
2022/03/05 10:20:45;;;;;;;;;;;4.00;99.90;;;;;;5156358;27;19988;-68
2022/03/05 10:23:11;;;;;;;;;;;3.70;99.90;;;;;;5156198;27;19984;-69
2022/03/05 10:25:44;;;;;;;;;;;4.50;99.90;;;;;;5156012;27;20390;-69
2022/03/05 10:28:15;;;;;;;;;;;3.80;99.90;;;;;;5155883;27;19974;-68
2022/03/05 10:30:42;;;;;;;;;;;3.90;99.90;;;;;;5156022;27;19923;-70
2022/03/05 10:33:09;;;;;;;;;;;4.00;99.90;;;;;;5155982;27;19923;-68
2022/03/05 10:35:35;;;;;;;;;;;4.00;99.90;;;;;;5156107;27;19930;-68
2022/03/05 10:38:00;;;;;;;;;;;4.10;99.90;;;;;;5155935;27;19923;-68
2022/03/05 10:40:27;;;;;;;;;;;4.20;99.90;;;;;;5155927;27;19927;-68
2022/03/05 10:42:53;;;;;;;;;;;5.10;99.90;;;;;;5155756;27;19968;-69
2022/03/05 10:45:18;;;;;;;;;;;4.80;99.90;;;;;;5136743;27;19923;-68
2022/03/05 10:47:48;;;;;;;;;;;5.70;99.90;;;;;;5137162;27;20010;-71
2022/03/05 10:50:21;;;;;;;;;;;4.50;99.90;;;;;;5155686;27;19993;-69
2022/03/05 10:52:54;;;;;;;;;;;4.60;99.90;;;;;;5136798;27;19934;-69
2022/03/05 10:55:21;;;;;;;;;;;4.70;99.90;;;;;;5136989;27;19924;-69
2022/03/05 10:58:00;;;;;;;;;;;4.80;99.90;;;;;;5154639;27;19979;-69
2022/03/05 11:00:26;;;;;;;;;;;4.90;99.90;;;;;;5137165;27;19969;-69
2022/03/05 11:02:52;;;;;;;;;;;5.00;99.90;;;;;;5155612;27;20354;-68
2022/03/05 11:05:19;;;;;;;;;;;5.10;99.90;;;;;;5155208;27;19945;-69
2022/03/05 11:07:45;;;;;;;;;;;5.20;99.90;;;;;;5155123;27;20057;-69
2022/03/05 11:10:11;;;;;;;;;;;5.20;99.90;;;;;;5155267;27;19975;-71
2022/03/05 11:12:41;;;;;;;;;;;5.30;99.90;;;;;;5136995;27;20019;-69
2022/03/05 11:15:08;;;;;;;;;;;5.30;99.90;;;;;;5137025;27;19969;-68
2022/03/05 11:17:34;;;;;;;;;;;5.40;99.90;;;;;;5155264;27;19923;-71
2022/03/05 11:20:01;;;;;;;;;;;5.50;99.90;;;;;;5155097;27;20011;-70
2022/03/05 11:22:27;;;;;;;;;;;5.60;99.90;;;;;;5155173;27;20385;-69
2022/03/05 11:24:53;;;;;;;;;;;5.60;99.90;;;;;;5154999;27;19929;-69
2022/03/05 11:27:19;;;;;;;;;;;5.70;99.90;;;;;;5154862;27;19927;-71
2022/03/05 11:29:52;;;;;;;;;;;5.80;99.90;;;;;;5155313;27;20018;-69
2022/03/05 11:32:18;;;;;;;;;;;5.80;99.90;;;;;;5144515;27;20271;-69
2022/03/05 11:34:44;;;;;;;;;;;6.00;99.90;;;;;;5118087;27;19930;-69
2022/03/05 11:37:17;;;;;;;;;;;6.00;99.90;;;;;;5136041;27;19930;-71
2022/03/05 11:39:43;;;;;;;;;;;6.10;99.90;;;;;;5134291;28;19924;-71
2022/03/05 11:42:09;;;;;;;;;;;6.10;99.90;;;;;;5134197;28;20019;-70
2022/03/05 11:44:42;;;;;;;;;;;6.30;99.90;;;;;;5134272;28;20298;-69
2022/03/05 11:47:20;;;;;;;;;;;6.20;99.90;;;;;;5116249;28;20373;-69
2022/03/05 11:50:02;;;;;;;;;;;6.30;99.90;;;;;;5134356;28;19974;-69
2022/03/05 11:52:37;;;;;;;;;;;6.40;99.90;;;;;;5134158;28;20015;-69
2022/03/05 11:55:14;;;;;;;;;;;6.40;99.90;;;;;;5150418;27;19924;-70
2022/03/05 11:57:51;;;;;;;;;;;6.40;99.90;;;;;;5134176;28;20380;-69
2022/03/05 12:00:24;;;;;;;;;;;6.30;99.90;;;;;;5149643;27;20026;-72
2022/03/05 12:02:50;;;;;;;;;;;6.30;99.90;;;;;;5150280;27;19927;-70
2022/03/05 12:05:35;;;;;;;;;;;7.30;99.90;;;;;;5149363;27;19983;-71
2022/03/05 12:08:01;;;;;;;;;;;6.40;99.90;;;;;;5133968;28;19930;-69
2022/03/05 12:10:26;;;;;;;;;;;6.70;99.90;;;;;;5136066;27;19927;-71
2022/03/05 12:12:57;;;;;;;;;;;6.50;99.90;;;;;;5137818;27;19967;-69
2022/03/05 12:15:26;;;;;;;;;;;6.60;99.90;;;;;;5137729;27;19924;-69
2022/03/05 12:17:53;;;;;;;;;;;6.70;99.90;;;;;;5137598;27;19987;-71
2022/03/05 12:20:20;;;;;;;;;;;6.70;99.90;;;;;;5137875;27;20054;-71
2022/03/05 12:22:48;;;;;;;;;;;6.80;99.90;;;;;;5136619;27;20105;-70
2022/03/05 12:25:14;;;;;;;;;;;6.80;99.90;;;;;;5119360;27;19930;-73
2022/03/05 12:27:46;;;;;;;;;;;7.40;99.90;;;;;;5137545;27;20014;-69
2022/03/05 12:30:12;;;;;;;;;;;6.80;99.90;;;;;;5137668;27;20013;-71
2022/03/05 12:32:41;;;;;;;;;;;6.90;99.90;;;;;;5137338;27;19978;-70
2022/03/05 12:35:08;;;;;;;;;;;6.90;99.90;;;;;;5119412;27;19927;-71
2022/03/05 12:37:34;;;;;;;;;;;6.90;99.90;;;;;;5119516;27;20073;-69
2022/03/05 12:40:00;;;;;;;;;;;7.00;99.90;;;;;;5137376;27;19982;-70
2022/03/05 12:42:36;;;;;;;;;;;7.00;99.90;;;;;;5153631;27;19963;-72
2022/03/05 12:45:02;;;;;;;;;;;7.00;99.90;;;;;;5136001;27;19927;-69
2022/03/05 12:47:32;;;;;;;;;;;7.00;99.90;;;;;;5137375;27;19975;-70
2022/03/05 12:49:58;;;;;;;;;;;7.00;99.90;;;;;;5137640;27;19974;-69
2022/03/05 12:52:23;;;;;;;;;;;7.50;99.90;;;;;;5153310;27;20263;-71
2022/03/05 12:54:53;;;;;;;;;;;7.60;99.90;;;;;;5118825;27;20022;-71
2022/03/05 12:57:18;;;;;;;;;;;7.10;99.20;;;;;;5137312;27;20026;-70
2022/03/05 12:59:45;;;;;;;;;;;7.50;99.90;;;;;;5118187;27;19976;-72
2022/03/05 13:02:10;;;;;;;;;;;7.00;99.90;;;;;;5137208;27;20064;-69
2022/03/05 13:04:37;;;;;;;;;;;7.00;99.90;;;;;;5118841;27;20006;-69
2022/03/05 13:07:03;;;;;;;;;;;7.90;99.90;;;;;;5152877;27;19923;-71
2022/03/05 13:09:29;;;;;;;;;;;7.00;99.90;;;;;;5136337;27;20321;-75
2022/03/05 13:11:54;;;;;;;;;;;7.00;99.90;;;;;;5146281;27;20344;-69
2022/03/05 13:14:20;;;;;;;;;;;7.70;99.90;;;;;;5133586;27;20018;-70
2022/03/05 13:16:49;;;;;;;;;;;7.10;99.90;;;;;;5116417;28;19932;-70
2022/03/05 13:19:14;;;;;;;;;;;8.40;99.90;;;;;;5097634;28;19928;-74
2022/03/05 13:21:43;;;;;;;;;;;7.00;99.90;;;;;;5096756;28;19986;-71
2022/03/05 13:24:10;;;;;;;;;;;7.10;99.90;;;;;;5116153;28;19976;-71
2022/03/05 13:26:36;;;;;;;;;;;8.20;99.90;;;;;;5115825;28;20382;-70
2022/03/05 13:29:02;;;;;;;;;;;7.10;99.90;;;;;;5115993;28;19924;-71
2022/03/05 13:31:28;;;;;;;;;;;7.30;99.90;;;;;;5116204;28;19977;-72
2022/03/05 13:33:54;;;;;;;;;;;7.10;99.90;;;;;;5098066;28;19930;-70
2022/03/05 13:36:22;;;;;;;;;;;7.00;99.90;;;;;;5097796;28;19924;-70
2022/03/05 13:38:48;;;;;;;;;;;7.10;99.90;;;;;;5097550;28;20308;-69
2022/03/05 13:41:23;;;;;;;;;;;7.10;99.90;;;;;;5115952;28;19968;-70
2022/03/05 13:43:49;;;;;;;;;;;7.10;99.90;;;;;;5097858;28;19924;-70
2022/03/05 13:46:16;;;;;;;;;;;7.10;99.90;;;;;;5115841;28;19946;-70
2022/03/05 13:48:42;;;;;;;;;;;7.00;99.90;;;;;;5115788;28;19924;-73
2022/03/05 13:51:12;;;;;;;;;;;7.00;99.90;;;;;;5115331;28;19924;-70
2022/03/05 13:53:41;;;;;;;;;;;6.90;96.90;;;;;;5115382;28;20018;-70
2022/03/05 13:56:06;;;;;;;;;;;6.80;99.90;;;;;;5115344;28;19934;-69
2022/03/05 13:58:32;;;;;;;;;;;6.80;99.90;;;;;;5115330;28;20325;-72
2022/03/05 14:00:57;;;;;;;;;;;6.80;99.90;;;;;;5115560;28;19924;-72
2022/03/05 14:03:23;;;;;;;;;;;6.80;99.90;;;;;;5115468;28;19976;-70
2022/03/05 14:05:49;;;;;;;;;;;6.90;99.90;;;;;;5115256;28;19967;-70
2022/03/05 14:08:15;;;;;;;;;;;6.90;98.10;;;;;;5115282;28;19924;-70
2022/03/05 14:10:41;;;;;;;;;;;6.90;99.90;;;;;;5115282;28;19931;-70
2022/03/05 14:13:14;;;;;;;;;;;6.90;99.90;;;;;;5115248;28;19927;-70
2022/03/05 14:15:40;;;;;;;;;;;6.60;99.90;;;;;;5115233;28;19924;-70
2022/03/05 14:18:07;;;;;;;;;;;6.90;99.90;;;;;;5114997;28;20293;-69
2022/03/05 14:20:46;;;;;;;;;;;6.90;99.90;;;;;;5097000;28;20282;-72
2022/03/05 14:23:13;;;;;;;;;;;6.90;97.10;;;;;;5114990;28;19924;-72
2022/03/05 14:25:41;;;;;;;;;;;6.90;99.90;;;;;;5115031;28;19924;-70